Time;durP1;ratioP1;P1;durP2;ratioP2;P2;SDS_P1;SDS_P2;PMS_P1;PMS_P2;Temp;Humidity;BMP_temperature;BMP_pressure;BME280_temperature;BME280_humidity;BME280_pressure;Samples;Min_cycle;Max_cycle;Signal;HPM_P1;HPM_P2
2022/01/07 00:01:19;;;;;;;14.25;5.07;;;;;;;1.45;82.76;101377.88;5026529;28;20121;-70
2022/01/07 00:03:45;;;;;;;18.58;4.82;;;;;;;1.48;82.63;101372.59;5028480;28;20042;-68
2022/01/07 00:06:10;;;;;;;21.27;5.03;;;;;;;1.69;81.84;101372.34;5022199;28;20037;-68
2022/01/07 00:08:36;;;;;;;23.88;6.05;;;;;;;1.57;82.27;101368.72;5027140;28;20033;-68
2022/01/07 00:11:02;;;;;;;18.02;4.97;;;;;;;1.51;82.18;101369.06;5008933;28;20026;-68
2022/01/07 00:13:28;;;;;;;18.15;5.97;;;;;;;1.53;82.37;101372.34;5026080;28;20029;-68
2022/01/07 00:15:54;;;;;;;11.40;4.72;;;;;;;1.62;81.80;101366.75;5026715;28;20075;-68
2022/01/07 00:18:21;;;;;;;13.68;5.00;;;;;;;1.53;82.86;101352.72;5026152;28;20068;-68
2022/01/07 00:20:47;;;;;;;14.75;4.88;;;;;;;1.60;81.85;101349.81;5024184;28;20037;-68
2022/01/07 00:23:13;;;;;;;16.58;5.38;;;;;;;1.53;82.27;101337.38;5017095;28;20514;-68
2022/01/07 00:25:39;;;;;;;20.15;6.10;;;;;;;1.67;82.27;101343.47;5021017;28;20121;-68
2022/01/07 00:28:05;;;;;;;14.55;5.88;;;;;;;1.69;82.20;101333.97;5024215;28;20052;-68
2022/01/07 00:30:31;;;;;;;16.85;5.65;;;;;;;1.63;82.51;101336.88;5023463;28;20081;-68
2022/01/07 00:32:56;;;;;;;14.13;5.15;;;;;;;1.59;82.82;101335.41;5022257;28;20025;-68
2022/01/07 00:35:22;;;;;;;19.75;5.43;;;;;;;1.69;82.32;101332.22;5018277;28;20052;-68
2022/01/07 00:37:49;;;;;;;15.27;6.18;;;;;;;1.77;81.67;101321.56;5025929;28;20084;-68
2022/01/07 00:40:19;;;;;;;17.55;5.60;;;;;;;1.75;80.98;101316.56;5017956;28;20561;-68
2022/01/07 00:42:50;;;;;;;16.17;5.80;;;;;;;1.68;82.07;101315.25;5027271;28;20483;-68
2022/01/07 00:45:16;;;;;;;16.75;6.07;;;;;;;1.75;81.21;101308.06;5023357;28;20041;-68
2022/01/07 00:47:43;;;;;;;15.13;5.72;;;;;;;1.77;81.20;101305.41;5028145;28;20044;-68
2022/01/07 00:50:09;;;;;;;19.33;5.60;;;;;;;1.74;80.82;101303.88;5024411;28;20042;-68
2022/01/07 00:52:34;;;;;;;17.45;6.40;;;;;;;1.87;80.93;101294.59;5027861;28;20380;-68
2022/01/07 00:55:01;;;;;;;21.55;6.05;;;;;;;1.82;80.53;101301.69;5022763;28;20048;-68
2022/01/07 00:57:27;;;;;;;14.85;5.47;;;;;;;1.81;80.57;101300.06;5027028;28;20124;-68
2022/01/07 00:59:52;;;;;;;15.65;5.82;;;;;;;1.87;81.20;101294.59;5027946;28;20493;-68
2022/01/07 01:02:18;;;;;;;17.88;5.75;;;;;;;1.72;81.76;101283.50;5027686;28;20029;-68
2022/01/07 01:04:44;;;;;;;11.52;5.30;;;;;;;1.85;81.18;101281.06;5023751;28;20033;-68
2022/01/07 01:07:11;;;;;;;12.35;5.30;;;;;;;1.80;80.99;101277.13;5026116;28;20511;-68
2022/01/07 01:09:37;;;;;;;19.90;5.93;;;;;;;1.82;81.67;101275.31;5026108;28;20033;-69
2022/01/07 01:12:07;;;;;;;13.77;5.13;;;;;;;1.87;81.09;101273.31;5026535;28;20029;-68
2022/01/07 01:14:39;;;;;;;12.80;5.20;;;;;;;1.83;81.71;101275.22;5024021;28;20087;-68
2022/01/07 01:17:05;;;;;;;17.85;5.47;;;;;;;1.83;80.61;101270.09;5021661;28;20514;-68
2022/01/07 01:19:31;;;;;;;20.63;6.05;;;;;;;1.83;80.86;101266.69;5026478;28;20036;-68
2022/01/07 01:21:57;;;;;;;11.98;5.07;;;;;;;1.78;80.95;101268.72;5027047;28;20083;-68
2022/01/07 01:24:23;;;;;;;12.48;4.60;;;;;;;1.91;80.78;101262.00;5025504;28;20403;-68
2022/01/07 01:26:49;;;;;;;12.73;5.32;;;;;;;1.91;80.38;101264.53;5027886;28;20159;-68
2022/01/07 01:29:15;;;;;;;15.07;5.43;;;;;;;1.91;80.71;101259.44;5027160;28;20083;-68
2022/01/07 01:31:43;;;;;;;14.00;5.00;;;;;;;1.84;80.46;101258.94;5022618;28;20063;-68
2022/01/07 01:34:09;;;;;;;12.98;4.13;;;;;;;2.02;79.30;101266.50;5024525;28;20391;-68
2022/01/07 01:36:35;;;;;;;12.65;4.72;;;;;;;1.94;79.78;101259.22;5031748;28;20040;-68
2022/01/07 01:39:01;;;;;;;12.68;5.47;;;;;;;1.98;79.77;101262.44;5026946;28;20137;-68
2022/01/07 01:41:27;;;;;;;13.70;4.32;;;;;;;2.05;79.39;101261.19;5034588;28;20040;-68
2022/01/07 01:43:53;;;;;;;14.05;4.40;;;;;;;2.00;79.78;101256.34;5034895;28;20037;-69
2022/01/07 01:46:20;;;;;;;13.20;5.53;;;;;;;2.04;80.35;101262.09;5027749;28;20048;-68
2022/01/07 01:48:46;;;;;;;14.55;4.65;;;;;;;2.08;81.26;101249.03;5028672;28;20032;-68
2022/01/07 01:51:13;;;;;;;10.60;4.50;;;;;;;2.03;81.65;101242.53;5029501;28;20037;-68
2022/01/07 01:53:45;;;;;;;12.98;4.30;;;;;;;2.22;80.12;101243.09;5031029;28;20166;-68
2022/01/07 01:56:10;;;;;;;15.70;4.68;;;;;;;2.17;81.26;101244.28;5030251;28;20041;-69
2022/01/07 01:58:36;;;;;;;13.10;4.85;;;;;;;2.01;81.23;101240.06;5029564;28;20040;-68
2022/01/07 02:01:02;;;;;;;18.55;4.75;;;;;;;2.02;82.63;101236.59;5030038;28;20578;-69
2022/01/07 02:03:28;;;;;;;10.88;5.22;;;;;;;2.00;83.27;101243.56;5029843;28;20033;-68
2022/01/07 02:05:57;;;;;;;13.75;4.45;;;;;;;2.06;83.81;101235.50;5027603;28;20060;-68
2022/01/07 02:08:22;;;;;;;15.68;5.10;;;;;;;1.97;83.48;101228.38;5023862;28;20040;-68
2022/01/07 02:10:48;;;;;;;15.23;5.20;;;;;;;1.94;84.13;101226.81;5027693;28;20050;-69
2022/01/07 02:13:18;;;;;;;13.50;4.50;;;;;;;2.00;83.65;101227.34;5027479;28;20091;-69
2022/01/07 02:15:44;;;;;;;8.65;4.53;;;;;;;2.04;83.79;101214.31;5036170;28;20064;-69
2022/01/07 02:18:10;;;;;;;13.77;4.22;;;;;;;1.98;84.09;101224.06;5024313;28;20026;-68
2022/01/07 02:20:36;;;;;;;14.48;4.60;;;;;;;2.02;84.29;101202.53;5023546;28;20083;-69
2022/01/07 02:23:02;;;;;;;15.95;4.70;;;;;;;2.00;85.24;101204.34;5027132;28;20033;-69
2022/01/07 02:25:28;;;;;;;8.30;4.53;;;;;;;1.93;85.47;101206.44;5024057;28;20036;-69
2022/01/07 02:27:55;;;;;;;12.98;4.80;;;;;;;1.94;85.81;101202.97;5026066;28;20029;-69
2022/01/07 02:30:29;;;;;;;16.05;4.97;;;;;;;1.94;86.43;101190.16;5042810;28;20175;-68
2022/01/07 02:32:56;;;;;;;20.58;5.05;;;;;;;1.73;87.11;101182.88;5022525;28;20102;-69
2022/01/07 02:35:26;;;;;;;11.68;4.70;;;;;;;1.72;88.03;101183.78;5024616;28;20420;-68
2022/01/07 02:37:53;;;;;;;12.80;4.57;;;;;;;1.88;87.61;101167.53;5026095;28;20103;-68
2022/01/07 02:40:19;;;;;;;18.73;5.63;;;;;;;1.81;87.49;101159.41;5028575;28;20116;-69
2022/01/07 02:42:45;;;;;;;18.38;5.13;;;;;;;1.64;88.85;101150.16;5025796;28;20039;-68
2022/01/07 02:45:13;;;;;;;13.13;4.93;;;;;;;1.75;88.38;101140.13;5028470;28;20053;-69
2022/01/07 02:48:16;;;;;;;11.65;4.07;;;;;;;1.78;87.78;101140.84;5028627;28;20029;-69
2022/01/07 02:50:38;;;;;;;18.10;3.95;;;;;;;1.67;87.80;101128.69;5027366;28;20054;-69
2022/01/07 02:53:07;;;;;;;10.32;3.70;;;;;;;1.72;87.55;101119.84;5026769;28;20510;-68
2022/01/07 02:55:33;;;;;;;8.73;3.35;;;;;;;1.78;88.29;101116.09;5010873;28;20033;-68
2022/01/07 02:57:59;;;;;;;15.18;4.50;;;;;;;1.79;87.84;101115.19;5041846;28;20083;-68
2022/01/07 03:00:28;;;;;;;12.90;4.35;;;;;;;1.87;87.32;101112.19;5024828;28;20427;-69
2022/01/07 03:02:56;;;;;;;15.02;4.35;;;;;;;1.80;87.42;101108.34;5027941;28;20021;-68
2022/01/07 03:05:22;;;;;;;10.60;3.75;;;;;;;1.80;87.31;101104.03;5017418;28;20114;-68
2022/01/07 03:07:49;;;;;;;12.48;3.53;;;;;;;1.75;86.81;101098.38;5024299;28;20115;-68
2022/01/07 03:10:19;;;;;;;9.52;3.55;;;;;;;1.74;87.21;101105.22;5027262;28;20033;-69
2022/01/07 03:12:45;;;;;;;10.13;3.30;;;;;;;1.82;86.59;101091.16;5027963;28;20544;-68
2022/01/07 03:15:12;;;;;;;14.65;4.15;;;;;;;1.96;85.29;101078.38;5027358;28;20144;-69
2022/01/07 03:17:40;;;;;;;11.48;3.40;;;;;;;1.92;85.24;101076.91;5027354;28;20025;-68
2022/01/07 03:20:07;;;;;;;9.70;4.03;;;;;;;2.01;84.54;101080.66;5026712;28;20033;-68
2022/01/07 03:22:33;;;;;;;9.57;3.38;;;;;;;1.94;84.73;101087.84;5041141;28;20044;-69
2022/01/07 03:24:59;;;;;;;13.60;3.38;;;;;;;1.98;84.60;101081.66;5021487;28;20025;-69
2022/01/07 03:27:24;;;;;;;15.05;3.42;;;;;;;2.06;82.74;101076.09;5024541;28;20405;-68
2022/01/07 03:29:50;;;;;;;9.05;3.47;;;;;;;2.15;82.68;101072.97;5025784;28;20049;-68
2022/01/07 03:32:16;;;;;;;16.10;3.63;;;;;;;2.16;83.61;101069.47;5025160;28;20034;-68
2022/01/07 03:34:42;;;;;;;10.73;3.08;;;;;;;2.14;82.83;101058.50;5025932;28;20333;-68
2022/01/07 03:37:08;;;;;;;17.70;3.75;;;;;;;2.09;82.90;101063.94;5026504;28;20091;-68
2022/01/07 03:39:33;;;;;;;8.82;3.40;;;;;;;1.99;83.26;101056.91;5025502;28;20033;-68
2022/01/07 03:42:02;;;;;;;9.70;3.50;;;;;;;2.06;83.07;101063.28;5024882;28;20076;-69
2022/01/07 03:44:31;;;;;;;9.57;2.92;;;;;;;2.04;82.86;101060.81;5042269;28;21170;-69
2022/01/07 03:46:57;;;;;;;7.63;2.83;;;;;;;2.12;82.64;101057.78;5018399;28;20588;-68
2022/01/07 03:49:22;;;;;;;12.30;3.40;;;;;;;2.21;82.81;101048.72;5028778;28;20076;-69
2022/01/07 03:51:48;;;;;;;18.52;3.20;;;;;;;2.25;81.82;101053.53;5027077;28;20037;-68
2022/01/07 03:54:14;;;;;;;13.10;3.10;;;;;;;2.22;81.06;101037.56;5026517;28;20036;-68
2022/01/07 03:56:40;;;;;;;14.18;3.30;;;;;;;2.27;80.67;101028.69;5024883;28;20057;-68
2022/01/07 03:59:05;;;;;;;12.77;3.03;;;;;;;2.34;79.73;101029.13;5041489;28;20040;-69
2022/01/07 04:01:31;;;;;;;8.75;2.63;;;;;;;2.27;80.06;101031.22;5025647;28;20068;-68
2022/01/07 04:03:57;;;;;;;11.38;3.03;;;;;;;2.22;80.12;101024.75;5025729;28;20056;-69
2022/01/07 04:06:22;;;;;;;10.77;2.33;;;;;;;2.21;80.67;101030.81;5027223;28;20061;-68
2022/01/07 04:08:49;;;;;;;12.70;3.70;;;;;;;2.23;81.17;101031.53;5024870;28;20396;-68
2022/01/07 04:11:15;;;;;;;14.30;4.90;;;;;;;2.29;80.64;101033.72;5028187;28;20434;-68
2022/01/07 04:13:41;;;;;;;7.65;2.67;;;;;;;2.31;79.71;101024.19;5024528;28;20396;-68
2022/01/07 04:16:08;;;;;;;10.75;2.80;;;;;;;2.20;80.62;101022.28;5025374;28;20476;-68
2022/01/07 04:18:33;;;;;;;10.95;3.17;;;;;;;2.32;80.24;101018.16;5026095;28;20557;-69
2022/01/07 04:20:59;;;;;;;8.57;2.65;;;;;;;2.29;80.11;101006.38;5027222;28;20029;-69
2022/01/07 04:23:25;;;;;;;12.48;3.28;;;;;;;2.28;79.67;101003.91;5025849;28;20033;-69
2022/01/07 04:25:51;;;;;;;14.70;6.38;;;;;;;2.36;79.43;101003.44;5022466;28;20041;-69
2022/01/07 04:28:16;;;;;;;12.77;3.42;;;;;;;2.32;80.30;101005.38;5021316;28;20064;-68
2022/01/07 04:30:44;;;;;;;8.07;2.92;;;;;;;2.38;79.88;101010.09;5025793;28;20483;-68
2022/01/07 04:33:13;;;;;;;12.85;3.75;;;;;;;2.41;80.09;101011.63;5025460;28;20021;-69
2022/01/07 04:35:41;;;;;;;11.20;3.90;;;;;;;2.53;80.52;101011.66;5022796;28;20117;-68
2022/01/07 04:38:09;;;;;;;9.63;3.63;;;;;;;2.44;80.84;101006.31;5023215;28;20048;-69
2022/01/07 04:40:35;;;;;;;13.65;4.28;;;;;;;2.41;81.38;100999.66;5027298;28;20049;-68
2022/01/07 04:43:03;;;;;;;9.18;2.67;;;;;;;2.51;81.97;101005.81;5024038;28;20113;-68
2022/01/07 04:45:36;;;;;;;14.63;3.35;;;;;;;2.61;82.79;101006.03;5024894;28;20033;-69
2022/01/07 04:48:03;;;;;;;12.63;3.17;;;;;;;2.51;84.08;100999.91;5019760;28;20029;-68
2022/01/07 04:50:29;;;;;;;12.73;2.25;;;;;;;2.42;84.93;100993.63;5022997;28;20038;-68
2022/01/07 04:52:55;;;;;;;9.48;3.42;;;;;;;2.43;86.36;100985.03;5030764;28;20025;-69
2022/01/07 04:55:23;;;;;;;11.40;2.97;;;;;;;2.49;87.14;100996.63;5022468;28;20652;-69
2022/01/07 04:57:50;;;;;;;9.10;2.58;;;;;;;2.33;87.55;100994.19;5023647;28;20068;-69
2022/01/07 05:00:17;;;;;;;14.52;2.55;;;;;;;2.37;87.78;101000.75;5020460;28;20037;-68
2022/01/07 05:02:46;;;;;;;8.02;2.88;;;;;;;2.29;88.46;100992.75;5021791;28;20037;-68
2022/01/07 05:05:12;;;;;;;16.80;3.08;;;;;;;2.23;89.59;100999.09;5025713;28;20044;-69
2022/01/07 05:07:41;;;;;;;7.22;2.50;;;;;;;2.21;89.67;100997.56;5024088;28;20641;-69
2022/01/07 05:10:11;;;;;;;6.88;2.45;;;;;;;2.21;90.05;100987.31;5028521;28;20083;-69
2022/01/07 05:12:37;;;;;;;8.68;2.80;;;;;;;2.31;90.31;100994.28;5028738;28;20030;-69
2022/01/07 05:15:05;;;;;;;9.63;3.00;;;;;;;2.24;91.38;101007.56;5026400;28;20511;-68
2022/01/07 05:17:31;;;;;;;8.20;2.78;;;;;;;2.16;91.58;100999.56;5027034;28;20025;-69
2022/01/07 05:19:57;;;;;;;15.20;3.00;;;;;;;2.18;92.50;100987.50;5028663;28;20022;-69
2022/01/07 05:22:23;;;;;;;8.95;2.65;;;;;;;2.03;92.79;101002.88;5028330;28;20029;-69
2022/01/07 05:24:49;;;;;;;9.38;2.75;;;;;;;2.01;93.35;101001.34;5027824;28;20041;-69
2022/01/07 05:27:14;;;;;;;8.88;3.03;;;;;;;1.88;93.91;101001.28;5027031;28;20037;-69
2022/01/07 05:29:40;;;;;;;5.03;2.20;;;;;;;2.03;93.89;100981.59;5027197;28;20077;-69
2022/01/07 05:32:07;;;;;;;10.57;2.90;;;;;;;2.03;93.81;100977.31;5029132;28;20472;-68
2022/01/07 05:34:33;;;;;;;11.18;3.42;;;;;;;1.92;94.46;100982.25;5038921;28;20133;-68
2022/01/07 05:37:00;;;;;;;12.85;3.65;;;;;;;1.95;95.04;100979.53;5027246;28;20120;-69
2022/01/07 05:39:26;;;;;;;8.40;3.15;;;;;;;1.95;94.93;100979.53;5025109;28;20578;-69
2022/01/07 05:41:52;;;;;;;9.55;3.53;;;;;;;1.94;95.20;100981.28;5032321;28;20112;-69
2022/01/07 05:44:18;;;;;;;8.73;2.88;;;;;;;1.94;95.17;100980.44;5029112;28;20033;-69
2022/01/07 05:46:44;;;;;;;9.52;3.08;;;;;;;2.06;95.31;100966.88;5029435;28;20037;-69
2022/01/07 05:49:10;;;;;;;12.43;3.13;;;;;;;2.01;94.99;100962.97;5028207;28;20598;-69
2022/01/07 05:51:41;;;;;;;7.28;2.85;;;;;;;2.00;95.08;100963.88;5028675;28;20029;-68
2022/01/07 05:54:06;;;;;;;10.95;3.20;;;;;;;1.91;95.67;100952.50;5027271;28;20132;-69
2022/01/07 05:56:32;;;;;;;11.82;3.03;;;;;;;1.90;95.67;100958.53;5028027;28;20037;-68
2022/01/07 05:58:58;;;;;;;10.93;3.17;;;;;;;1.99;95.72;100957.13;5021696;28;20484;-69
2022/01/07 06:01:24;;;;;;;13.45;3.08;;;;;;;1.90;96.00;100959.38;5025560;28;20046;-68
2022/01/07 06:03:49;;;;;;;10.50;3.08;;;;;;;1.99;95.82;100957.13;5050259;23;20028;-79
2022/01/07 06:06:15;;;;;;;11.68;3.28;;;;;;;1.94;95.69;100957.41;5005366;28;20042;-78
2022/01/07 06:08:40;;;;;;;13.23;3.58;;;;;;;1.95;95.96;100957.31;5005235;28;20125;-77
2022/01/07 06:11:06;;;;;;;10.95;3.17;;;;;;;1.97;95.79;100961.53;5007138;28;20033;-77
2022/01/07 06:13:31;;;;;;;8.10;3.08;;;;;;;2.04;95.68;100953.38;5006274;28;20052;-76
2022/01/07 06:15:57;;;;;;;6.38;3.08;;;;;;;2.05;95.47;100957.56;5023718;28;20453;-78
2022/01/07 06:18:22;;;;;;;13.70;3.65;;;;;;;2.04;95.47;100950.81;5018631;28;20042;-77
2022/01/07 06:20:48;;;;;;;5.25;3.00;;;;;;;2.07;95.25;100942.13;5004188;28;20041;-77
2022/01/07 06:23:13;;;;;;;9.98;4.05;;;;;;;2.16;95.42;100941.53;5023977;28;20045;-77
2022/01/07 06:25:39;;;;;;;9.10;3.53;;;;;;;2.19;95.08;100948.22;5005997;28;20034;-76
2022/01/07 06:28:05;;;;;;;11.75;3.13;;;;;;;2.11;95.21;100946.97;5005405;28;20034;-77
2022/01/07 06:30:30;;;;;;;7.80;3.22;;;;;;;2.24;95.15;100957.25;5021993;28;20546;-79
2022/01/07 06:32:56;;;;;;;6.93;3.05;;;;;;;2.04;95.28;100955.94;5022698;28;20037;-77
2022/01/07 06:35:21;;;;;;;8.25;4.40;;;;;;;2.09;95.66;100964.16;5022397;28;20034;-77
2022/01/07 06:37:47;;;;;;;9.07;3.55;;;;;;;2.19;95.28;100958.44;5020607;28;20785;-78
2022/01/07 06:40:12;;;;;;;7.95;3.13;;;;;;;2.16;95.38;100948.41;5006987;28;20044;-77
2022/01/07 06:42:38;;;;;;;8.98;3.75;;;;;;;2.17;95.44;100945.75;5021497;28;20030;-77
2022/01/07 06:45:05;;;;;;;13.20;3.92;;;;;;;2.33;95.29;100943.81;5020435;28;20034;-77
2022/01/07 06:47:31;;;;;;;6.85;2.72;;;;;;;2.17;95.68;100943.19;5007137;28;20038;-78
2022/01/07 06:49:56;;;;;;;8.32;3.17;;;;;;;2.12;96.15;100937.53;5021513;28;20028;-78
2022/01/07 06:52:22;;;;;;;5.95;3.10;;;;;;;2.19;96.02;100943.91;5007372;28;20030;-77
2022/01/07 06:54:47;;;;;;;7.50;3.60;;;;;;;2.21;95.62;100943.81;5005731;28;20048;-77
2022/01/07 06:57:12;;;;;;;7.40;3.42;;;;;;;2.26;95.42;100949.44;5004424;28;20791;-77
2022/01/07 06:59:38;;;;;;;7.60;3.20;;;;;;;2.25;95.24;100948.63;5008410;28;20030;-76
2022/01/07 07:02:04;;;;;;;13.02;4.45;;;;;;;2.31;95.15;100955.09;5017075;28;20034;-78
2022/01/07 07:04:29;;;;;;;7.97;2.92;;;;;;;2.40;94.87;100954.50;5005798;28;20234;-76
2022/01/07 07:06:55;;;;;;;10.63;3.42;;;;;;;2.21;95.08;100957.41;5019491;28;20037;-76
2022/01/07 07:09:20;;;;;;;11.90;3.92;;;;;;;2.28;95.81;100951.00;5008677;28;20091;-77
2022/01/07 07:11:46;;;;;;;9.15;3.15;;;;;;;2.41;95.27;100951.03;5004941;28;20034;-77
2022/01/07 07:14:12;;;;;;;13.45;3.83;;;;;;;2.40;95.32;100944.25;5015996;28;20042;-78
2022/01/07 07:16:38;;;;;;;10.23;3.40;;;;;;;2.42;94.86;100947.53;5014998;28;20128;-76
2022/01/07 07:19:04;;;;;;;6.90;3.03;;;;;;;2.45;94.62;100947.34;5004846;28;20488;-76
2022/01/07 07:21:29;;;;;;;11.35;3.63;;;;;;;2.42;94.61;100939.84;5002537;28;20129;-76
2022/01/07 07:23:55;;;;;;;8.68;3.40;;;;;;;2.43;94.69;100941.50;5020855;28;20041;-75
2022/01/07 07:26:20;;;;;;;9.73;3.47;;;;;;;2.49;94.91;100940.28;5019563;28;20380;-78
2022/01/07 07:28:47;;;;;;;14.70;5.18;;;;;;;2.48;94.26;100939.44;5008330;28;20025;-77
2022/01/07 07:31:16;;;;;;;8.80;2.95;;;;;;;2.53;94.07;100939.97;5015897;28;20084;-78
2022/01/07 07:38:51;;;;;;;11.63;3.17;;;;;;;2.67;93.78;100948.50;5019863;28;20037;-77
2022/01/07 07:41:17;;;;;;;9.52;3.58;;;;;;;2.66;93.50;100947.69;5002937;28;20030;-76
2022/01/07 07:43:44;;;;;;;8.00;4.07;;;;;;;2.67;92.98;100951.06;5003763;28;20468;-77
2022/01/07 07:46:10;;;;;;;8.02;3.33;;;;;;;2.67;93.54;100948.50;5005873;28;20037;-77
2022/01/07 07:48:35;;;;;;;10.07;3.70;;;;;;;2.65;93.39;100951.16;5005945;28;20037;-77
2022/01/07 07:51:01;;;;;;;11.43;4.57;;;;;;;2.73;92.96;100955.75;5006852;28;20053;-77
2022/01/07 07:53:26;;;;;;;5.53;3.63;;;;;;;2.63;93.24;100954.75;5005176;28;20377;-77
2022/01/07 07:55:53;;;;;;;9.23;3.50;;;;;;;2.68;93.58;100965.50;5007112;28;20056;-77
2022/01/07 07:58:21;;;;;;;5.65;3.42;;;;;;;2.72;92.49;100967.75;5006056;28;20049;-77
2022/01/07 08:00:47;;;;;;;8.73;3.28;;;;;;;2.83;92.54;100969.63;5003528;28;20025;-77
2022/01/07 08:03:12;;;;;;;6.57;3.10;;;;;;;2.70;92.67;100967.03;5020443;28;20026;-77
2022/01/07 08:05:38;;;;;;;6.50;3.22;;;;;;;2.73;92.78;100959.16;5016992;28;20556;-77
2022/01/07 08:08:04;;;;;;;10.63;3.25;;;;;;;2.79;92.42;100963.06;5004276;28;20048;-77
2022/01/07 08:10:30;;;;;;;8.02;3.95;;;;;;;2.68;92.55;100965.50;5000117;28;20030;-77
2022/01/07 08:18:15;;;;;;;8.18;3.25;;;;;;;2.75;92.54;100963.34;5020694;28;20088;-77
2022/01/07 08:20:40;;;;;;;6.50;3.20;;;;;;;2.78;92.43;100970.84;5011294;28;20033;-77
2022/01/07 08:23:06;;;;;;;8.43;2.85;;;;;;;2.85;92.17;100961.84;5015971;28;20037;-77
2022/01/07 08:25:32;;;;;;;9.50;3.03;;;;;;;2.80;91.99;100963.88;5001301;28;20111;-76
2022/01/07 08:28:03;;;;;;;9.38;3.40;;;;;;;2.91;92.03;100959.66;5009228;28;20065;-77
2022/01/07 08:30:35;;;;;;;7.22;2.80;;;;;;;2.79;92.31;100952.81;5008177;28;20382;-76
2022/01/07 08:35:45;;;;;;;6.30;2.70;;;;;;;2.73;92.29;100943.81;5005151;28;20026;-76
2022/01/07 08:38:11;;;;;;;6.68;3.33;;;;;;;2.86;92.38;100937.84;5001860;28;20447;-77
2022/01/07 08:40:37;;;;;;;5.80;2.55;;;;;;;2.86;91.57;100930.16;5014730;28;20034;-77
2022/01/07 08:43:02;;;;;;;5.57;3.08;;;;;;;2.87;92.22;100922.38;5020795;28;20125;-77
2022/01/07 08:45:28;;;;;;;6.47;2.95;;;;;;;2.91;91.98;100917.88;5020337;28;20045;-77
2022/01/07 08:47:54;;;;;;;5.15;2.80;;;;;;;2.86;91.73;100917.34;5019917;28;20888;-77
2022/01/07 08:50:19;;;;;;;5.90;3.05;;;;;;;2.84;91.17;100908.97;5005938;28;20045;-77
2022/01/07 08:52:45;;;;;;;4.60;2.63;;;;;;;2.84;91.32;100927.69;5005350;28;20104;-77
2022/01/07 08:55:11;;;;;;;5.63;3.20;;;;;;;2.90;91.78;100918.78;5017396;28;20038;-77
2022/01/07 08:57:37;;;;;;;6.30;2.20;;;;;;;2.98;91.21;100913.16;5019962;28;20034;-77
2022/01/07 09:00:04;;;;;;;4.85;2.08;;;;;;;3.04;91.13;100918.69;5021196;28;20034;-77
2022/01/07 09:02:29;;;;;;;3.55;2.22;;;;;;;3.07;90.63;100933.00;5002371;28;20038;-77
2022/01/07 09:04:56;;;;;;;5.97;2.90;;;;;;;3.14;90.33;100930.88;5004323;28;20041;-77
2022/01/07 09:07:21;;;;;;;4.47;2.80;;;;;;;3.11;90.27;100944.72;5004511;28;20045;-77
2022/01/07 09:09:47;;;;;;;3.40;2.38;;;;;;;3.09;90.58;100938.88;5006288;28;20026;-76
2022/01/07 09:12:12;;;;;;;5.90;2.50;;;;;;;3.07;91.25;100943.25;5005595;28;20641;-76
2022/01/07 09:14:38;;;;;;;3.90;2.05;;;;;;;3.10;90.97;100935.38;5006574;28;20080;-77
2022/01/07 09:17:04;;;;;;;4.47;2.45;;;;;;;3.03;91.00;100935.00;5004731;28;20049;-76
2022/01/07 09:19:29;;;;;;;4.85;2.70;;;;;;;3.08;90.46;100920.09;5019909;28;20066;-77
2022/01/07 09:21:56;;;;;;;4.10;2.10;;;;;;;2.97;91.32;100925.13;5002511;28;20034;-77
2022/01/07 09:24:22;;;;;;;4.32;2.40;;;;;;;3.01;90.89;100931.69;5001315;28;20038;-77
2022/01/07 09:26:48;;;;;;;5.18;2.10;;;;;;;3.09;90.58;100944.00;5018633;28;20036;-76
2022/01/07 09:29:13;;;;;;;2.67;2.00;;;;;;;3.15;90.29;100923.09;5005075;28;20025;-77
2022/01/07 09:31:39;;;;;;;3.47;2.10;;;;;;;3.17;90.21;100928.09;5006410;28;20462;-76
2022/01/07 09:34:06;;;;;;;2.78;2.00;;;;;;;3.19;89.96;100921.94;5021523;28;20037;-76
2022/01/07 09:36:32;;;;;;;6.63;1.98;;;;;;;3.21;90.22;100925.22;5005867;28;20125;-76
2022/01/07 09:38:58;;;;;;;5.00;2.42;;;;;;;3.17;90.43;100930.66;5020655;28;20073;-77
2022/01/07 09:41:24;;;;;;;5.00;2.40;;;;;;;3.25;90.25;100928.41;5014422;28;20068;-76
2022/01/07 09:43:50;;;;;;;3.92;2.00;;;;;;;3.31;89.68;100935.66;5019295;28;20515;-76
2022/01/07 09:46:18;;;;;;;3.25;1.95;;;;;;;3.27;89.40;100941.91;5020246;28;20120;-77
2022/01/07 09:48:44;;;;;;;3.28;1.88;;;;;;;3.29;89.68;100938.31;5019470;28;20030;-77
2022/01/07 09:51:13;;;;;;;4.68;1.88;;;;;;;3.31;89.50;100941.63;5018682;28;20520;-76
2022/01/07 09:53:39;;;;;;;6.47;1.95;;;;;;;3.30;89.46;100937.41;5006338;28;20455;-77
2022/01/07 09:56:04;;;;;;;3.70;2.03;;;;;;;3.44;89.50;100928.75;5007986;28;20034;-76
2022/01/07 09:58:32;;;;;;;5.13;1.73;;;;;;;3.51;89.53;100937.66;5023862;28;20420;-76
2022/01/07 10:01:09;;;;;;;3.08;1.50;;;;;;;3.39;89.05;100938.53;5022635;28;20038;-76
2022/01/07 10:03:41;;;;;;;2.25;1.80;;;;;;;3.49;89.14;100944.66;5022474;28;20099;-76
2022/01/07 10:06:18;;;;;;;6.00;2.20;;;;;;;3.57;88.68;100940.72;5018843;28;20494;-77
2022/01/07 10:08:46;;;;;;;4.22;1.90;;;;;;;3.45;89.11;100937.28;5018932;28;20512;-76
2022/01/07 10:11:19;;;;;;;5.88;2.10;;;;;;;3.52;89.39;100941.03;5018736;28;20129;-76
2022/01/07 10:13:50;;;;;;;3.10;1.83;;;;;;;3.42;89.04;100925.47;5007011;28;20054;-76
2022/01/07 10:16:21;;;;;;;7.20;2.33;;;;;;;3.51;88.89;100932.53;5023214;28;20165;-76
2022/01/07 10:18:47;;;;;;;3.42;2.08;;;;;;;3.57;88.62;100935.59;5018277;28;20044;-76
2022/01/07 10:21:15;;;;;;;2.80;1.85;;;;;;;3.51;88.24;100924.03;5008648;28;20104;-76
2022/01/07 10:23:42;;;;;;;6.03;2.10;;;;;;;3.51;89.29;100924.84;5005634;28;20022;-76
2022/01/07 10:26:13;;;;;;;3.70;2.15;;;;;;;3.57;88.89;100923.59;5020809;28;20504;-76
2022/01/07 10:28:39;;;;;;;3.08;2.10;;;;;;;3.54;89.60;100923.78;5024374;28;20034;-77
2022/01/07 10:31:07;;;;;;;6.22;2.10;;;;;;;3.58;88.74;100922.69;5026731;28;20514;-76
2022/01/07 10:33:38;;;;;;;6.00;2.28;;;;;;;3.74;88.24;100930.09;5004161;28;20061;-76
2022/01/07 10:36:06;;;;;;;4.65;2.15;;;;;;;3.73;88.79;100923.34;5022147;28;20396;-76
2022/01/07 10:38:34;;;;;;;5.15;2.50;;;;;;;3.74;88.05;100908.78;5006719;28;20030;-76
2022/01/07 10:41:00;;;;;;;3.20;2.30;;;;;;;3.70;88.43;100908.16;5023553;28;20034;-76
2022/01/07 10:43:36;;;;;;;5.45;2.20;;;;;;;3.70;88.08;100898.72;5022054;28;20044;-76
2022/01/07 10:46:15;;;;;;;4.63;2.58;;;;;;;3.70;88.54;100905.59;5005928;28;20069;-76
2022/01/07 10:48:40;;;;;;;5.07;2.30;;;;;;;3.67;87.97;100901.53;5022627;28;20033;-78
2022/01/07 10:51:08;;;;;;;3.15;2.30;;;;;;;3.74;88.02;100901.88;5008569;28;20584;-76
2022/01/07 10:53:34;;;;;;;6.50;2.72;;;;;;;3.87;88.31;100896.72;5001863;28;20030;-76
2022/01/07 10:56:16;;;;;;;3.92;2.30;;;;;;;3.97;88.08;100889.16;5021444;28;20414;-77
2022/01/07 10:58:55;;;;;;;2.83;2.25;;;;;;;4.07;87.50;100897.84;5023674;28;20530;-78
2022/01/07 11:01:20;;;;;;;6.53;3.33;;;;;;;3.94;87.46;100891.94;5021507;28;20037;-77
2022/01/07 11:03:51;;;;;;;6.72;2.45;;;;;;;4.09;86.83;100886.53;5023035;28;20164;-77
2022/01/07 11:06:17;;;;;;;8.38;2.83;;;;;;;4.08;86.84;100890.00;5003603;28;20037;-77
2022/01/07 11:08:42;;;;;;;5.00;2.60;;;;;;;4.10;87.07;100888.16;5022321;28;20096;-76
2022/01/07 11:11:10;;;;;;;7.07;2.38;;;;;;;4.17;87.08;100891.09;5007698;28;20033;-76
2022/01/07 11:13:36;;;;;;;7.40;2.40;;;;;;;4.03;86.66;100886.13;5005396;28;20064;-76
2022/01/07 11:16:02;;;;;;;6.55;3.28;;;;;;;4.07;86.78;100887.59;5004342;28;20045;-77
2022/01/07 11:18:28;;;;;;;3.47;2.10;;;;;;;4.16;87.24;100891.22;5020137;28;20038;-77
2022/01/07 11:20:58;;;;;;;5.57;2.45;;;;;;;4.19;85.93;100881.53;5007341;28;20052;-77
2022/01/07 11:23:30;;;;;;;4.95;2.28;;;;;;;4.09;86.73;100878.03;5020228;28;20037;-77
2022/01/07 11:26:12;;;;;;;4.27;2.70;;;;;;;4.10;87.07;100883.00;5022463;28;20040;-78
2022/01/07 11:28:54;;;;;;;7.78;2.83;;;;;;;4.19;87.16;100878.97;5008017;28;20030;-77
2022/01/07 11:31:20;;;;;;;7.47;2.20;;;;;;;4.11;86.77;100871.03;5022445;28;20038;-77
2022/01/07 11:33:46;;;;;;;5.72;3.10;;;;;;;4.09;87.30;100866.00;5006691;28;20129;-77
2022/01/07 11:36:32;;;;;;;7.57;2.75;;;;;;;3.99;87.37;100867.56;5021587;28;20503;-77
2022/01/07 11:39:03;;;;;;;6.05;2.55;;;;;;;4.04;87.07;100873.22;5001761;28;20129;-77
2022/01/07 11:41:58;;;;;;;6.93;3.30;;;;;;;4.02;87.88;100869.13;5004795;28;20044;-76